Time;durP1;ratioP1;P1;durP2;ratioP2;P2;SDS_P1;SDS_P2;PMS_P1;PMS_P2;Temp;Humidity;BMP_temperature;BMP_pressure;BME280_temperature;BME280_humidity;BME280_pressure;Samples;Min_cycle;Max_cycle;Signal;HPM_P1;HPM_P2
2023/08/20 00:02:19;;;;;;;6.22;4.32;;;;;;;21.64;53.65;94184.22;5023021;28;20076;-80
2023/08/20 00:04:47;;;;;;;8.40;4.65;;;;;;;21.69;53.66;94185.81;5023570;28;20026;-80
2023/08/20 00:07:12;;;;;;;12.57;5.07;;;;;;;21.72;53.32;94190.50;5023606;28;20022;-80
2023/08/20 00:09:38;;;;;;;8.43;4.95;;;;;;;21.77;53.17;94189.34;5023614;28;20334;-80
2023/08/20 00:12:05;;;;;;;11.82;5.15;;;;;;;21.79;52.84;94192.47;5023400;28;20284;-80
2023/08/20 00:14:58;;;;;;;12.13;5.65;;;;;;;21.79;52.68;94181.63;5022375;28;20021;-80
2023/08/20 00:17:26;;;;;;;9.23;4.68;;;;;;;21.78;52.69;94178.13;5020098;28;20038;-80
2023/08/20 00:19:53;;;;;;;10.95;4.90;;;;;;;21.79;52.43;94181.63;5023624;28;20026;-80
2023/08/20 00:22:21;;;;;;;10.20;5.10;;;;;;;21.82;51.92;94184.38;5023199;28;20133;-80
2023/08/20 00:24:46;;;;;;;12.60;4.97;;;;;;;21.86;51.94;94183.59;5022164;28;20032;-80
2023/08/20 00:27:12;;;;;;;14.65;5.30;;;;;;;21.92;51.68;94190.22;5023331;28;20029;-80
2023/08/20 00:29:38;;;;;;;15.75;5.05;;;;;;;21.92;51.42;94195.66;5023188;28;20018;-80
2023/08/20 00:32:03;;;;;;;9.90;5.45;;;;;;;21.99;51.24;94191.06;5023259;28;20013;-80
2023/08/20 00:34:29;;;;;;;10.50;5.20;;;;;;;22.08;51.10;94185.28;5021883;28;20018;-80
2023/08/20 00:36:54;;;;;;;10.45;5.35;;;;;;;22.11;51.10;94192.69;5022146;28;20025;-80
2023/08/20 00:39:20;;;;;;;11.90;5.93;;;;;;;22.15;50.95;94176.44;5023223;28;20322;-80
2023/08/20 00:41:45;;;;;;;8.00;4.90;;;;;;;22.19;50.93;94179.97;5023042;28;20034;-80
2023/08/20 00:44:10;;;;;;;10.18;5.65;;;;;;;22.21;51.07;94186.56;5023177;28;20018;-80
2023/08/20 00:46:36;;;;;;;15.90;5.70;;;;;;;22.19;50.99;94188.09;5022973;28;20029;-80
2023/08/20 00:49:01;;;;;;;10.20;5.43;;;;;;;22.18;51.27;94186.53;5023185;28;20030;-80
2023/08/20 00:51:28;;;;;;;11.13;5.53;;;;;;;22.08;51.58;94185.28;5021743;28;20017;-80
2023/08/20 00:53:54;;;;;;;13.93;5.63;;;;;;;22.06;51.84;94187.63;5023015;28;20018;-80
2023/08/20 00:56:20;;;;;;;7.85;5.30;;;;;;;22.03;51.93;94186.44;5023040;28;20067;-80
2023/08/20 00:58:45;;;;;;;8.68;5.65;;;;;;;22.04;51.72;94174.44;5022815;28;20034;-80
2023/08/20 01:01:11;;;;;;;10.65;5.57;;;;;;;22.04;51.72;94179.06;5022850;28;20264;-80
2023/08/20 01:03:36;;;;;;;9.57;5.47;;;;;;;22.04;52.01;94181.78;5022956;28;20101;-80
2023/08/20 01:06:16;;;;;;;10.93;5.47;;;;;;;22.02;52.12;94184.09;5022652;28;20017;-80
2023/08/20 01:08:47;;;;;;;15.15;6.20;;;;;;;22.03;52.32;94185.66;5021561;28;20038;-80
2023/08/20 01:11:19;;;;;;;9.75;5.18;;;;;;;22.02;52.37;94178.66;5021562;28;20034;-80
2023/08/20 01:13:45;;;;;;;;;;;;;;;22.03;52.17;94186.44;5024113;28;20018;-80
2023/08/20 01:16:11;;;;;;;7.85;5.05;;;;;;;22.00;52.25;94181.78;5026619;28;19912;-80
2023/08/20 01:18:36;;;;;;;10.57;5.65;;;;;;;22.03;52.18;94182.97;5025531;28;20022;-80
2023/08/20 01:21:10;;;;;;;11.35;5.60;;;;;;;22.06;52.15;94184.13;5025490;28;20022;-80
2023/08/20 01:23:55;;;;;;;9.57;5.57;;;;;;;22.07;52.47;94181.03;5026055;28;20064;-81
2023/08/20 01:26:44;;;;;;;11.32;5.53;;;;;;;22.06;52.66;94184.91;5025448;28;20048;-80
2023/08/20 01:29:11;;;;;;;10.65;5.45;;;;;;;22.03;53.21;94182.97;5026177;28;20096;-80
2023/08/20 01:31:38;;;;;;;10.48;5.68;;;;;;;22.05;52.65;94177.94;5026488;28;20026;-81
2023/08/20 01:34:04;;;;;;;8.38;5.40;;;;;;;22.03;52.79;94182.97;5025184;28;20045;-81
2023/08/20 01:36:29;;;;;;;10.15;5.63;;;;;;;22.01;52.54;94179.84;5026425;28;20041;-80
2023/08/20 01:38:55;;;;;;;11.13;5.93;;;;;;;22.06;52.84;94179.47;5026673;28;20026;-80
2023/08/20 01:41:20;;;;;;;15.57;6.35;;;;;;;22.03;53.11;94175.59;5025097;28;20102;-80
2023/08/20 01:43:46;;;;;;;12.95;5.25;;;;;;;21.98;53.15;94170.53;5026318;28;20133;-80
2023/08/20 01:46:12;;;;;;;10.82;5.95;;;;;;;21.99;53.15;94169.34;5026248;28;20256;-80
2023/08/20 01:48:38;;;;;;;11.18;6.28;;;;;;;21.99;53.52;94168.59;5025091;28;20054;-80
2023/08/20 01:51:03;;;;;;;10.63;5.78;;;;;;;21.91;53.52;94166.97;5026235;28;20259;-80
2023/08/20 01:53:29;;;;;;;10.15;6.10;;;;;;;21.87;53.74;94177.81;5026100;28;20076;-81
2023/08/20 01:55:54;;;;;;;10.80;6.65;;;;;;;21.88;53.51;94176.66;5025061;28;20030;-80
2023/08/20 01:58:20;;;;;;;8.82;5.63;;;;;;;21.86;53.70;94181.69;5025884;28;20030;-81
2023/08/20 02:00:46;;;;;;;12.43;5.95;;;;;;;21.76;54.34;94172.31;5024840;28;20029;-80
2023/08/20 02:03:11;;;;;;;11.25;6.90;;;;;;;21.73;54.21;94173.06;5026044;28;20034;-80
2023/08/20 02:05:37;;;;;;;11.63;6.43;;;;;;;21.69;54.66;94164.09;5024802;28;20056;-80
2023/08/20 02:08:04;;;;;;;8.80;5.32;;;;;;;21.64;54.38;94169.91;5025811;28;20032;-80
2023/08/20 02:10:29;;;;;;;9.80;5.72;;;;;;;21.59;54.72;94167.50;5025575;28;20121;-80
2023/08/20 02:12:54;;;;;;;11.68;5.55;;;;;;;21.47;55.03;94159.66;5024700;28;20367;-81
2023/08/20 02:15:20;;;;;;;11.82;6.15;;;;;;;21.35;55.20;94142.53;5025731;28;20085;-80
2023/08/20 02:17:46;;;;;;;10.70;5.88;;;;;;;21.34;55.56;94154.50;5024586;28;20034;-81
2023/08/20 02:20:11;;;;;;;7.55;5.38;;;;;;;21.29;55.96;94156.78;5025610;28;20022;-81
2023/08/20 02:22:37;;;;;;;8.93;5.53;;;;;;;21.21;56.14;94148.59;5025375;28;20394;-80
2023/08/20 02:25:02;;;;;;;9.00;5.72;;;;;;;21.19;56.24;94156.31;5023971;28;20378;-81
2023/08/20 02:27:28;;;;;;;15.18;5.50;;;;;;;21.15;56.19;94158.22;5024102;28;20037;-80
2023/08/20 02:29:53;;;;;;;8.85;4.88;;;;;;;21.04;56.75;94150.00;5025746;28;20022;-81
2023/08/20 02:32:19;;;;;;;9.20;5.68;;;;;;;21.02;56.72;94146.88;5025275;28;20021;-80
2023/08/20 02:34:49;;;;;;;12.38;5.80;;;;;;;20.98;57.32;94151.44;5024200;28;20030;-80
2023/08/20 02:37:14;;;;;;;12.27;6.47;;;;;;;20.92;57.32;94150.22;5025369;28;20026;-80
2023/08/20 02:39:40;;;;;;;7.85;4.88;;;;;;;20.86;57.34;94151.72;5025301;28;20028;-81
2023/08/20 02:42:05;;;;;;;14.93;5.20;;;;;;;20.83;57.34;94145.13;5025133;28;20026;-81
2023/08/20 02:44:31;;;;;;;12.80;5.60;;;;;;;20.82;57.37;94148.19;5025059;28;20084;-81
2023/08/20 02:46:56;;;;;;;8.57;5.28;;;;;;;20.78;57.27;94150.88;5024058;28;20315;-80
2023/08/20 02:49:22;;;;;;;12.07;5.55;;;;;;;20.77;57.58;94156.66;5025414;28;20026;-81
2023/08/20 02:51:47;;;;;;;7.50;5.35;;;;;;;20.76;57.40;94161.31;5025070;28;20201;-81
2023/08/20 02:54:13;;;;;;;15.02;5.95;;;;;;;20.79;57.43;94165.19;5025038;28;20037;-81
2023/08/20 02:56:38;;;;;;;11.77;5.90;;;;;;;20.77;57.76;94172.91;5025003;28;20041;-81
2023/08/20 02:59:04;;;;;;;8.80;5.18;;;;;;;20.76;57.41;94168.63;5023937;28;20026;-81
2023/08/20 03:01:30;;;;;;;7.28;5.30;;;;;;;20.77;57.91;94176.41;5024956;28;20033;-81
2023/08/20 03:03:56;;;;;;;12.45;5.82;;;;;;;20.70;58.67;94176.31;5024942;28;20026;-81
2023/08/20 03:06:21;;;;;;;9.75;5.50;;;;;;;20.60;58.89;94177.75;5024925;28;20096;-81
2023/08/20 03:08:47;;;;;;;13.73;5.78;;;;;;;20.54;59.49;94181.91;5024669;28;20026;-80
2023/08/20 03:11:12;;;;;;;13.27;6.22;;;;;;;20.51;59.81;94179.91;5024661;28;20034;-80
2023/08/20 03:13:38;;;;;;;15.48;6.05;;;;;;;20.45;59.87;94173.28;5024936;28;20211;-80
2023/08/20 03:16:04;;;;;;;6.90;5.30;;;;;;;20.41;60.01;94178.66;5024618;28;20021;-80
2023/08/20 03:18:29;;;;;;;10.65;6.05;;;;;;;20.32;60.47;94175.44;5024396;28;20049;-80
2023/08/20 03:20:56;;;;;;;8.68;5.65;;;;;;;20.32;59.98;94180.09;5024450;28;20383;-80
2023/08/20 03:23:22;;;;;;;10.63;6.20;;;;;;;20.31;59.93;94178.50;5024586;28;20028;-80
2023/08/20 03:25:47;;;;;;;23.27;6.20;;;;;;;20.32;60.09;94166.56;5023325;28;20010;-80
2023/08/20 03:28:13;;;;;;;11.07;5.70;;;;;;;20.32;59.68;94171.97;5024526;28;20036;-80
2023/08/20 03:30:38;;;;;;;11.57;5.63;;;;;;;20.24;60.25;94168.38;5024330;28;20338;-80
2023/08/20 03:33:04;;;;;;;14.27;6.28;;;;;;;20.19;60.51;94166.78;5024029;28;20026;-80
2023/08/20 03:35:29;;;;;;;18.55;6.45;;;;;;;20.17;60.84;94176.38;5024225;28;20338;-80
2023/08/20 03:37:55;;;;;;;16.25;6.43;;;;;;;20.18;61.10;94173.31;5023338;28;20014;-80
2023/08/20 03:40:20;;;;;;;21.77;7.43;;;;;;;20.19;61.28;94172.19;5024300;28;20047;-80
2023/08/20 03:42:46;;;;;;;20.02;6.07;;;;;;;20.13;60.93;94176.34;5024029;28;20343;-80
2023/08/20 03:45:11;;;;;;;13.80;6.95;;;;;;;20.09;61.00;94164.72;5023966;28;20014;-80
2023/08/20 03:47:37;;;;;;;12.23;6.30;;;;;;;20.08;60.22;94173.19;5024165;28;20017;-80
2023/08/20 03:50:03;;;;;;;12.82;7.00;;;;;;;20.11;60.24;94172.44;5022844;28;20018;-80
2023/08/20 03:52:29;;;;;;;9.15;5.30;;;;;;;20.06;60.49;94164.66;5023804;28;20025;-80
2023/08/20 03:54:54;;;;;;;12.02;5.93;;;;;;;19.91;61.23;94160.97;5023953;28;20018;-80
2023/08/20 03:57:20;;;;;;;8.75;6.22;;;;;;;19.94;60.82;94158.31;5023754;28;20022;-80
2023/08/20 03:59:45;;;;;;;11.85;6.93;;;;;;;19.84;60.87;94164.34;5023959;28;20033;-80
2023/08/20 04:02:11;;;;;;;9.85;5.93;;;;;;;19.84;61.05;94167.84;5023656;28;20028;-80
2023/08/20 04:04:37;;;;;;;11.50;6.40;;;;;;;19.77;61.87;94162.31;5022602;28;20024;-80
2023/08/20 04:07:03;;;;;;;11.18;5.97;;;;;;;19.76;62.30;94159.97;5023481;28;20064;-80
2023/08/20 04:09:28;;;;;;;11.52;6.93;;;;;;;19.81;62.33;94162.38;5023786;28;20030;-80
2023/08/20 04:11:54;;;;;;;23.75;7.55;;;;;;;19.90;62.80;94159.41;5023581;28;20340;-80
2023/08/20 04:14:19;;;;;;;14.85;6.28;;;;;;;19.93;62.92;94158.69;5023594;28;20277;-80
2023/08/20 04:16:44;;;;;;;12.43;7.45;;;;;;;19.99;63.04;94163.41;5023524;28;20416;-80
2023/08/20 04:19:10;;;;;;;20.25;6.28;;;;;;;19.95;63.81;94164.50;5022142;28;20018;-80
2023/08/20 04:21:35;;;;;;;14.13;6.20;;;;;;;19.99;63.48;94158.00;5023255;28;20030;-80
2023/08/20 04:24:01;;;;;;;13.00;6.78;;;;;;;20.07;63.17;94164.28;5023392;28;20028;-80
2023/08/20 04:26:26;;;;;;;9.48;6.15;;;;;;;20.14;63.32;94164.38;5023420;28;20022;-80
2023/08/20 04:28:51;;;;;;;14.82;6.50;;;;;;;20.26;62.82;94155.25;5023617;28;20026;-80
2023/08/20 04:31:17;;;;;;;15.77;6.28;;;;;;;20.30;62.79;94156.09;5023074;28;20017;-80
2023/08/20 04:33:42;;;;;;;21.85;6.78;;;;;;;20.37;62.38;94160.78;5023363;28;20067;-80
2023/08/20 04:36:08;;;;;;;17.05;7.13;;;;;;;20.48;63.17;94163.66;5023277;28;20021;-80
2023/08/20 04:38:33;;;;;;;14.05;6.60;;;;;;;20.51;63.07;94160.19;5023062;28;20044;-80
2023/08/20 04:40:59;;;;;;;15.75;6.68;;;;;;;20.48;63.09;94155.53;5023141;28;20028;-80
2023/08/20 04:43:24;;;;;;;15.70;6.57;;;;;;;20.57;63.00;94167.63;5023202;28;20022;-80
2023/08/20 04:45:50;;;;;;;17.75;7.30;;;;;;;20.66;62.34;94161.16;5023040;28;20197;-80
2023/08/20 04:48:15;;;;;;;22.20;6.75;;;;;;;20.73;62.54;94164.75;5022805;28;20056;-80
2023/08/20 04:50:41;;;;;;;28.33;7.43;;;;;;;20.78;62.58;94164.44;5022896;28;20025;-80
2023/08/20 04:53:06;;;;;;;17.13;6.95;;;;;;;20.86;62.80;94165.25;5023003;28;20068;-80
2023/08/20 04:55:35;;;;;;;17.25;7.00;;;;;;;20.95;62.94;94160.34;5022885;28;20022;-80
2023/08/20 04:58:00;;;;;;;21.17;7.43;;;;;;;20.95;62.35;94171.19;5023097;28;20045;-79
2023/08/20 05:00:26;;;;;;;10.77;6.70;;;;;;;20.89;60.84;94172.66;5023079;28;20247;-80
2023/08/20 05:02:51;;;;;;;17.75;7.28;;;;;;;20.92;60.02;94174.59;5022962;28;20328;-80
2023/08/20 05:05:17;;;;;;;16.42;7.25;;;;;;;21.02;59.70;94165.84;5022921;28;20018;-80
2023/08/20 05:07:44;;;;;;;20.85;7.03;;;;;;;21.04;59.59;94171.66;5022643;28;20061;-80
2023/08/20 05:10:10;;;;;;;11.40;6.90;;;;;;;21.09;59.07;94172.47;5022740;28;20018;-80
2023/08/20 05:12:36;;;;;;;9.52;5.95;;;;;;;21.16;59.20;94176.03;5022960;28;20022;-80
2023/08/20 05:15:02;;;;;;;13.05;6.55;;;;;;;21.19;59.11;94177.22;5022849;28;20089;-80
2023/08/20 05:17:27;;;;;;;16.10;6.82;;;;;;;21.30;58.20;94183.50;5022653;28;20022;-80
2023/08/20 05:19:53;;;;;;;15.93;6.18;;;;;;;21.43;57.68;94175.91;5022842;28;20022;-80
2023/08/20 05:22:18;;;;;;;15.82;6.35;;;;;;;21.49;57.51;94187.97;5022687;28;20220;-80
2023/08/20 05:24:43;;;;;;;18.25;6.50;;;;;;;21.53;57.12;94186.06;5021511;28;20026;-80
2023/08/20 05:27:14;;;;;;;13.13;6.90;;;;;;;21.61;57.02;94192.31;5021537;28;20021;-80
2023/08/20 05:29:39;;;;;;;10.70;6.50;;;;;;;21.68;56.42;94191.63;5022474;28;20044;-80
2023/08/20 05:32:06;;;;;;;14.15;6.72;;;;;;;21.75;56.06;94197.09;5022699;28;20173;-80
2023/08/20 05:34:31;;;;;;;13.27;7.55;;;;;;;21.82;56.48;94197.94;5022570;28;20243;-80
2023/08/20 05:36:57;;;;;;;14.60;7.03;;;;;;;21.96;56.00;94197.25;5021316;28;20018;-80
2023/08/20 05:39:23;;;;;;;15.80;7.07;;;;;;;22.10;55.44;94193.84;5022701;28;20026;-80
2023/08/20 05:41:49;;;;;;;18.10;7.22;;;;;;;22.17;55.16;94196.63;5022298;28;20021;-80
2023/08/20 05:44:14;;;;;;;14.60;7.13;;;;;;;22.30;55.26;94199.81;5022641;28;20022;-80
2023/08/20 05:46:40;;;;;;;13.60;6.82;;;;;;;22.36;54.77;94195.56;5022617;28;20026;-80
2023/08/20 05:49:06;;;;;;;19.90;8.13;;;;;;;22.38;55.10;94204.13;5022279;28;20018;-80
2023/08/20 05:51:31;;;;;;;13.70;7.10;;;;;;;22.53;55.08;94201.47;5022536;28;20025;-80
2023/08/20 05:53:57;;;;;;;13.85;6.65;;;;;;;22.64;54.86;94196.88;5022354;28;20316;-80
2023/08/20 05:56:22;;;;;;;18.70;7.28;;;;;;;22.83;53.93;94201.22;5022697;28;20024;-80
2023/08/20 05:58:48;;;;;;;16.45;7.78;;;;;;;22.94;53.93;94199.34;5021309;28;20055;-80
2023/08/20 06:01:13;;;;;;;17.65;6.72;;;;;;;23.02;54.24;94200.94;5023539;28;20097;-80
2023/08/20 06:03:38;;;;;;;12.10;6.35;;;;;;;23.21;54.45;94194.38;5024855;28;20026;-80
2023/08/20 06:06:04;;;;;;;10.50;5.93;;;;;;;23.39;53.97;94194.41;5025731;28;20049;-80
2023/08/20 06:08:29;;;;;;;11.57;5.57;;;;;;;23.59;54.33;94199.47;5025944;28;20089;-80
2023/08/20 06:10:55;;;;;;;11.60;5.22;;;;;;;23.67;53.69;94192.88;5024698;28;20339;-81
2023/08/20 06:13:20;;;;;;;9.13;5.97;;;;;;;23.82;53.23;94199.13;5025869;28;20018;-80
2023/08/20 06:15:46;;;;;;;17.50;5.88;;;;;;;24.00;52.66;94199.88;5025690;28;20033;-80
2023/08/20 06:18:11;;;;;;;9.63;6.15;;;;;;;24.12;51.89;94203.38;5025541;28;20025;-80
2023/08/20 06:20:36;;;;;;;12.57;6.05;;;;;;;24.23;51.21;94204.13;5025580;28;20227;-80
2023/08/20 06:23:05;;;;;;;9.60;5.50;;;;;;;24.42;50.90;94200.19;5025610;28;20021;-80
2023/08/20 06:25:30;;;;;;;11.35;5.97;;;;;;;24.64;50.47;94200.94;5025499;28;20088;-80
2023/08/20 06:27:55;;;;;;;8.95;5.55;;;;;;;24.78;50.55;94200.13;5025479;28;20025;-80
2023/08/20 06:30:21;;;;;;;17.40;5.53;;;;;;;24.80;49.80;94197.78;5025376;28;20021;-80
2023/08/20 06:32:46;;;;;;;15.65;5.50;;;;;;;24.87;49.80;94203.19;5025156;28;20018;-80
2023/08/20 06:35:12;;;;;;;11.02;4.93;;;;;;;25.15;49.38;94196.03;5024170;28;20322;-80
2023/08/20 06:37:40;;;;;;;9.55;5.28;;;;;;;25.39;47.85;94200.59;5025428;28;20017;-80
2023/08/20 06:40:07;;;;;;;9.35;4.80;;;;;;;25.62;45.70;94212.94;5025237;28;20097;-80
2023/08/20 06:42:33;;;;;;;6.15;4.22;;;;;;;25.83;44.91;94212.00;5023926;28;20021;-80
2023/08/20 06:44:58;;;;;;;11.15;4.55;;;;;;;25.99;43.79;94203.31;5025338;28;20312;-80
2023/08/20 06:47:24;;;;;;;8.50;4.07;;;;;;;26.09;43.70;94218.03;5025334;28;20028;-81
2023/08/20 06:49:50;;;;;;;19.63;4.70;;;;;;;26.21;43.94;94209.34;5025056;28;20049;-81
2023/08/20 06:52:16;;;;;;;9.55;4.10;;;;;;;26.29;43.10;94213.56;5024905;28;20292;-81
2023/08/20 06:54:42;;;;;;;9.13;4.13;;;;;;;26.39;43.27;94214.66;5023756;28;20096;-81
2023/08/20 06:57:07;;;;;;;6.57;3.83;;;;;;;26.51;42.93;94219.59;5025048;28;20307;-80
2023/08/20 06:59:32;;;;;;;8.43;4.60;;;;;;;26.60;42.63;94219.94;5023873;28;20216;-81
2023/08/20 07:01:58;;;;;;;8.10;3.90;;;;;;;26.67;42.39;94218.31;5023703;28;20028;-80
2023/08/20 07:04:23;;;;;;;9.48;4.20;;;;;;;26.73;41.84;94222.13;5024900;28;20048;-80
2023/08/20 07:06:50;;;;;;;10.82;4.85;;;;;;;26.74;42.31;94215.47;5024370;28;20370;-80
2023/08/20 07:09:16;;;;;;;7.13;4.38;;;;;;;26.80;42.16;94213.84;5023634;28;20030;-80
2023/08/20 07:11:41;;;;;;;10.90;4.15;;;;;;;26.85;41.92;94218.06;5024408;28;20072;-81
2023/08/20 07:14:06;;;;;;;8.57;4.25;;;;;;;26.97;41.16;94215.59;5024605;28;20022;-80
2023/08/20 07:16:32;;;;;;;8.38;4.50;;;;;;;27.02;40.83;94212.38;5024468;28;20056;-80
2023/08/20 07:18:57;;;;;;;13.10;4.50;;;;;;;27.09;41.02;94216.22;5024430;28;20025;-80
2023/08/20 07:21:23;;;;;;;8.60;4.50;;;;;;;27.18;40.75;94211.81;5024553;28;20044;-80
2023/08/20 07:23:48;;;;;;;7.25;5.13;;;;;;;27.27;40.84;94216.03;5024427;28;20316;-80
2023/08/20 07:26:15;;;;;;;6.13;3.92;;;;;;;27.31;40.19;94216.75;5024447;28;20312;-80
2023/08/20 07:28:56;;;;;;;11.57;4.90;;;;;;;27.31;40.89;94222.22;5024255;28;20217;-79
2023/08/20 07:31:29;;;;;;;7.40;4.50;;;;;;;27.33;39.89;94220.63;5024105;28;20018;-80
2023/08/20 07:33:56;;;;;;;10.98;4.07;;;;;;;27.33;39.96;94223.34;5023238;28;20024;-80
2023/08/20 07:36:23;;;;;;;6.47;3.90;;;;;;;27.41;39.71;94218.56;5024332;28;20056;-80
2023/08/20 07:38:49;;;;;;;7.50;4.28;;;;;;;27.39;40.11;94216.22;5022844;28;20076;-80
2023/08/20 07:41:15;;;;;;;9.95;4.32;;;;;;;27.40;40.03;94226.00;5024083;28;20037;-81
2023/08/20 07:43:41;;;;;;;10.57;3.78;;;;;;;27.40;39.54;94226.00;5023959;28;20065;-80
2023/08/20 07:46:07;;;;;;;9.75;3.70;;;;;;;27.42;39.61;94223.63;5023867;28;20025;-79
2023/08/20 07:48:34;;;;;;;8.07;3.95;;;;;;;27.48;39.71;94215.75;5023888;28;20334;-79
2023/08/20 07:51:00;;;;;;;10.73;4.60;;;;;;;27.55;39.43;94232.03;5023864;28;20030;-79
2023/08/20 07:53:25;;;;;;;7.60;4.13;;;;;;;27.60;39.46;94223.38;5022824;28;20033;-79
2023/08/20 07:55:51;;;;;;;8.88;4.40;;;;;;;27.69;39.34;94217.38;5023981;28;20092;-79
2023/08/20 07:58:16;;;;;;;9.20;4.53;;;;;;;27.79;39.25;94218.41;5022439;28;20021;-82
2023/08/20 08:00:43;;;;;;;9.40;4.55;;;;;;;27.93;38.38;94222.91;5023194;28;20300;-79
2023/08/20 08:03:09;;;;;;;8.48;4.60;;;;;;;28.00;38.33;94222.78;5023584;28;20029;-79
2023/08/20 08:05:35;;;;;;;7.05;4.05;;;;;;;28.09;37.69;94216.78;5023762;28;20189;-79
2023/08/20 08:08:00;;;;;;;8.65;4.03;;;;;;;28.15;36.86;94217.84;5023811;28;20097;-79
2023/08/20 08:10:26;;;;;;;7.57;3.92;;;;;;;28.20;36.80;94209.91;5023608;28;20038;-79
2023/08/20 08:12:51;;;;;;;6.68;3.60;;;;;;;28.25;37.02;94213.38;5022321;28;20068;-79
2023/08/20 08:15:17;;;;;;;5.63;3.72;;;;;;;28.26;36.96;94217.69;5023451;28;20096;-79
2023/08/20 08:17:42;;;;;;;10.02;3.90;;;;;;;28.24;36.58;94225.53;5023619;28;20320;-79
2023/08/20 08:20:08;;;;;;;6.43;4.13;;;;;;;28.27;36.36;94216.47;5023489;28;20044;-80
2023/08/20 08:22:33;;;;;;;8.73;3.90;;;;;;;28.32;35.90;94219.50;5023337;28;20082;-79
2023/08/20 08:25:01;;;;;;;6.65;3.63;;;;;;;28.34;35.86;94219.09;5022688;28;20071;-79
2023/08/20 08:27:26;;;;;;;7.68;3.75;;;;;;;28.35;35.40;94223.38;5023420;28;20022;-80
2023/08/20 08:29:52;;;;;;;9.80;4.13;;;;;;;28.32;35.16;94216.00;5023451;28;20044;-79
2023/08/20 08:32:17;;;;;;;12.73;3.72;;;;;;;28.36;34.99;94208.50;5023346;28;20029;-79
2023/08/20 08:34:43;;;;;;;6.93;3.55;;;;;;;28.37;34.26;94216.31;5023109;28;20335;-79
2023/08/20 08:37:08;;;;;;;9.25;3.33;;;;;;;28.30;34.18;94212.91;5023012;28;20077;-79
2023/08/20 08:39:34;;;;;;;8.90;3.33;;;;;;;28.20;33.59;94209.91;5023408;28;20025;-80
2023/08/20 08:42:04;;;;;;;6.88;3.05;;;;;;;28.31;33.88;94211.69;5023050;28;20329;-79
2023/08/20 08:44:32;;;;;;;4.22;3.17;;;;;;;28.31;34.05;94209.75;5023055;28;20033;-79
2023/08/20 08:46:58;;;;;;;9.35;3.38;;;;;;;28.39;34.09;94215.84;5023059;28;20030;-79
2023/08/20 08:49:24;;;;;;;8.13;3.20;;;;;;;28.41;34.06;94213.47;5023267;28;20014;-80
2023/08/20 08:51:51;;;;;;;6.88;3.83;;;;;;;28.51;33.90;94211.75;5021901;28;20079;-79
2023/08/20 08:54:16;;;;;;;8.85;3.72;;;;;;;28.52;31.66;94208.63;5022785;28;20088;-80
2023/08/20 08:56:42;;;;;;;6.93;2.85;;;;;;;28.47;32.24;94214.53;5022879;28;20033;-80
2023/08/20 08:59:07;;;;;;;5.00;3.17;;;;;;;28.55;31.36;94215.97;5023199;28;20103;-80
2023/08/20 09:01:38;;;;;;;8.68;2.85;;;;;;;28.56;31.26;94219.53;5021671;28;20045;-80
2023/08/20 09:04:04;;;;;;;4.28;3.15;;;;;;;28.66;31.48;94217.75;5022862;28;20022;-80
2023/08/20 09:06:48;;;;;;;8.07;2.90;;;;;;;28.77;31.09;94212.84;5022927;28;20021;-80
2023/08/20 09:09:13;;;;;;;4.45;2.65;;;;;;;28.83;31.04;94219.38;5022803;28;20025;-79
2023/08/20 09:11:39;;;;;;;6.38;3.15;;;;;;;28.75;31.05;94209.75;5022557;28;20034;-79
2023/08/20 09:14:04;;;;;;;11.13;4.13;;;;;;;28.77;30.37;94216.34;5022549;28;20021;-79
2023/08/20 09:16:31;;;;;;;13.65;5.25;;;;;;;28.89;30.74;94214.97;5021221;28;20100;-79
2023/08/20 09:18:59;;;;;;;4.05;2.72;;;;;;;28.95;30.40;94213.25;5022660;28;20022;-80
2023/08/20 09:21:29;;;;;;;6.93;3.28;;;;;;;28.97;30.16;94210.88;5022656;28;20030;-79
2023/08/20 09:23:55;;;;;;;10.18;3.95;;;;;;;28.85;31.54;94202.50;5021678;28;20029;-79
2023/08/20 09:26:21;;;;;;;10.75;4.40;;;;;;;28.89;31.86;94214.97;5022825;28;20079;-79
2023/08/20 09:28:46;;;;;;;6.47;2.90;;;;;;;28.94;31.37;94210.94;5021562;28;20096;-80
2023/08/20 09:31:13;;;;;;;6.03;3.03;;;;;;;28.99;31.04;94213.97;5021211;28;20021;-79
2023/08/20 09:33:50;;;;;;;5.22;3.10;;;;;;;29.04;31.59;94212.69;5022549;28;20193;-80
2023/08/20 09:36:16;;;;;;;4.07;2.83;;;;;;;29.07;31.36;94213.84;5024239;28;20239;-79
2023/08/20 09:38:42;;;;;;;4.90;2.60;;;;;;;29.00;30.20;94215.53;5026222;28;20025;-80
2023/08/20 09:41:08;;;;;;;9.65;3.53;;;;;;;28.93;30.32;94203.91;5025540;28;20049;-79
2023/08/20 09:43:38;;;;;;;7.40;3.05;;;;;;;28.80;30.07;94206.50;5024585;28;20203;-80
2023/08/20 09:46:05;;;;;;;6.78;3.22;;;;;;;28.99;30.35;94199.47;5025786;28;20371;-80
2023/08/20 09:48:35;;;;;;;7.40;2.63;;;;;;;29.11;30.24;94195.34;5025775;28;20085;-80
2023/08/20 09:51:04;;;;;;;8.95;2.88;;;;;;;29.23;30.32;94194.69;5025607;28;20339;-79
2023/08/20 09:54:02;;;;;;;5.68;2.92;;;;;;;29.41;30.33;94202.50;5025559;28;20029;-80
2023/08/20 09:56:29;;;;;;;11.00;3.05;;;;;;;29.49;29.28;94194.91;5025707;28;20205;-80
2023/08/20 09:58:57;;;;;;;4.45;2.72;;;;;;;29.58;29.28;94197.84;5024301;28;20334;-80
2023/08/20 10:01:23;;;;;;;5.03;2.67;;;;;;;29.65;29.08;94188.66;5024894;28;20029;-80
2023/08/20 10:03:49;;;;;;;11.23;2.60;;;;;;;29.77;28.37;94190.75;5025898;28;20028;-81
2023/08/20 10:06:14;;;;;;;4.78;3.10;;;;;;;29.88;28.82;94194.03;5025935;28;20227;-81
2023/08/20 10:08:40;;;;;;;6.95;2.80;;;;;;;29.95;28.16;94195.81;5025735;28;20084;-81
2023/08/20 10:11:05;;;;;;;5.38;2.88;;;;;;;29.99;27.13;94202.78;5025720;28;20038;-81
2023/08/20 10:13:32;;;;;;;5.10;2.55;;;;;;;30.13;25.76;94196.16;5024748;28;20029;-81
2023/08/20 10:15:57;;;;;;;5.10;2.22;;;;;;;30.20;26.03;94204.22;5024526;28;20060;-80
2023/08/20 10:18:23;;;;;;;3.40;2.08;;;;;;;29.92;25.99;94202.16;5025770;28;20220;-80
2023/08/20 10:20:52;;;;;;;6.75;2.40;;;;;;;29.88;26.25;94198.72;5025438;28;20029;-80
2023/08/20 10:23:24;;;;;;;4.07;2.38;;;;;;;30.04;26.78;94195.22;5025458;28;20076;-80
2023/08/20 10:25:52;;;;;;;4.65;2.80;;;;;;;30.20;27.04;94196.00;5025377;28;20024;-80
2023/08/20 10:28:21;;;;;;;3.53;2.40;;;;;;;30.32;27.72;94194.50;5025508;28;20033;-80
2023/08/20 10:31:16;;;;;;;5.53;2.35;;;;;;;30.25;26.28;94186.44;5025362;28;20325;-80
2023/08/20 10:33:56;;;;;;;11.85;2.80;;;;;;;29.84;26.39;94195.28;5020063;28;20061;-80
2023/08/20 10:36:25;;;;;;;5.60;2.88;;;;;;;29.99;26.81;94188.25;5025465;28;20064;-80
2023/08/20 10:38:55;;;;;;;6.68;2.55;;;;;;;30.20;28.18;94187.75;5025502;28;20036;-80
2023/08/20 10:41:28;;;;;;;11.20;2.45;;;;;;;30.37;27.33;94185.00;5024125;28;20224;-80
2023/08/20 10:43:58;;;;;;;4.28;2.42;;;;;;;30.46;27.47;94181.59;5025365;28;20029;-80
2023/08/20 10:46:25;;;;;;;8.27;2.60;;;;;;;30.54;27.81;94171.97;5024682;28;20096;-80
2023/08/20 10:48:52;;;;;;;6.57;2.55;;;;;;;30.58;27.10;94178.91;5024884;28;20064;-81
2023/08/20 10:51:23;;;;;;;10.38;2.80;;;;;;;30.46;27.45;94176.09;5024909;28;20136;-80
2023/08/20 10:54:05;;;;;;;6.07;3.10;;;;;;;30.30;28.42;94174.16;5024821;28;20025;-80
2023/08/20 10:56:37;;;;;;;;;;;;;;;30.32;28.21;94180.00;5025439;28;20033;-80
2023/08/20 10:59:07;;;;;;;7.80;3.78;;;;;;;30.49;29.25;94176.03;5024977;28;19975;-80
2023/08/20 11:01:34;;;;;;;7.50;2.90;;;;;;;30.64;28.16;94170.13;5024689;28;20038;-80
2023/08/20 11:04:04;;;;;;;4.85;2.70;;;;;;;30.81;27.92;94171.59;5023726;28;20075;-80
2023/08/20 11:06:32;;;;;;;3.83;2.75;;;;;;;30.95;28.21;94179.47;5024934;28;20296;-80
2023/08/20 11:08:57;;;;;;;6.03;3.28;;;;;;;31.05;28.29;94171.34;5024699;28;20026;-80
2023/08/20 11:11:23;;;;;;;6.50;3.05;;;;;;;31.10;28.41;94174.34;5024802;28;20123;-81
2023/08/20 11:13:49;;;;;;;5.10;3.10;;;;;;;31.24;27.98;94162.13;5024731;28;20280;-81
2023/08/20 11:16:14;;;;;;;8.57;3.28;;;;;;;31.34;28.73;94166.53;5024598;28;20141;-81
2023/08/20 11:18:41;;;;;;;4.65;2.95;;;;;;;31.37;27.92;94157.41;5024485;28;20100;-81
2023/08/20 11:21:07;;;;;;;4.75;2.58;;;;;;;31.45;28.34;94159.94;5024534;28;20037;-80
2023/08/20 11:23:34;;;;;;;8.38;2.53;;;;;;;31.34;26.87;94158.28;5023253;28;20339;-80
2023/08/20 11:26:00;;;;;;;4.03;2.67;;;;;;;31.13;27.04;94159.69;5024402;28;20029;-80
2023/08/20 11:28:27;;;;;;;6.82;2.65;;;;;;;31.21;27.02;94163.00;5024588;28;20022;-80